This is the latest recevied weather packets stored in our database for station/object GW1496. If no packets are shown the sender has not sent any weather packets the latest 10 day(s).
| Time | Temp. | Humidity | Pressure | Rain* | Wind** | Luminosity | Snow |
|---|---|---|---|---|---|---|---|
| 1777888097 | 5° C | 85% | 1006.7 hPa | 0 mm | - | - | - |
| 1777885574 | 5° C | 83% | 1006.7 hPa | 0 mm | - | - | - |
| 1777884141 | 5° C | 83% | 1006.7 hPa | 0 mm | - | - | - |
| 1777882695 | 5.56° C | 82% | 1006.7 hPa | 0 mm | - | - | - |
| 1777882336 | 5.56° C | 80% | 1006.7 hPa | 0 mm | - | - | - |
| 1777880176 | 6.11° C | 78% | 1006.7 hPa | 0 mm | - | - | - |
| 1777873000 | 6.11° C | 77% | 1007.7 hPa | 0 mm | - | - | - |
| 1777868671 | 6.67° C | 74% | 1007.7 hPa | 0 mm | - | - | - |
| 1777867604 | 7.22° C | 73% | 1007.7 hPa | 0 mm | - | - | - |
| 1777865772 | 7.78° C | 69% | 1006.7 hPa | 0 mm | - | - | - |
| 1777865436 | 7.78° C | 68% | 1006.7 hPa | 0 mm | - | - | - |
| 1777863254 | 8.33° C | 65% | 1006.7 hPa | 0 mm | - | - | - |
| 1777862540 | 8.33° C | 66% | 1006.7 hPa | 0 mm | - | - | - |
| 1777861827 | 8.89° C | 61% | 1006.7 hPa | 0 mm | - | - | - |
| 1777861114 | 8.33° C | 66% | 1006.7 hPa | 0 mm | - | - | - |
| 1777860380 | 8.33° C | 65% | 1006.7 hPa | 0 mm | - | - | - |
| 1777857134 | 10° C | 59% | 1006.7 hPa | 0 mm | - | - | - |
| 1777856078 | 10.56° C | 53% | 1006 hPa | 0 mm | - | - | - |
| 1777849972 | 14.44° C | 40% | 1006 hPa | 0 mm | - | - | - |
| 1777848143 | 17.22° C | 28% | 1006 hPa | 0 mm | - | - | - |
| 1777836981 | 16.11° C | 28% | 1007.7 hPa | 0 mm | - | - | - |
| 1777836643 | 16.11° C | 25% | 1007.7 hPa | 0 mm | - | - | - |
| 1777832334 | 15.56° C | 31% | 1008.8 hPa | 0 mm | - | - | - |
| 1777830500 | 14.44° C | 28% | 1008.8 hPa | 0 mm | - | - | - |
| 1777824410 | 12.78° C | 32% | 1009.8 hPa | 0 mm | - | - | - |
* Rain since midnight (hover to see other rain measurements)
** Current wind speed in m/s (hover to see current wind gust speed)